sensor_id;sensor_type;location;lat;lon;timestamp;temperature;humidity
43099;DHT22;28715;51.988;6.020;2022-08-11T06:32:45;21.40;81.30
43099;DHT22;28715;51.988;6.020;2022-08-11T06:35:17;21.50;81.20
43099;DHT22;28715;51.988;6.020;2022-08-11T06:43:46;21.70;81.50
43099;DHT22;28715;51.988;6.020;2022-08-11T06:46:22;21.70;81.00
43099;DHT22;28715;51.988;6.020;2022-08-11T06:48:49;21.80;81.00
43099;DHT22;28715;51.988;6.020;2022-08-11T06:51:15;21.80;81.20
43099;DHT22;28715;51.988;6.020;2022-08-11T06:53:52;21.90;81.30
43099;DHT22;28715;51.988;6.020;2022-08-11T06:56:27;22.00;80.90
43099;DHT22;28715;51.988;6.020;2022-08-11T06:59:16;22.00;80.50
43099;DHT22;28715;51.988;6.020;2022-08-11T07:02:12;22.10;80.10
43099;DHT22;28715;51.988;6.020;2022-08-11T07:05:06;22.30;79.50
43099;DHT22;28715;51.988;6.020;2022-08-11T07:13:35;23.10;78.10
43099;DHT22;28715;51.988;6.020;2022-08-11T07:16:28;23.70;77.10
43099;DHT22;28715;51.988;6.020;2022-08-11T07:19:02;24.20;75.00
43099;DHT22;28715;51.988;6.020;2022-08-11T07:21:48;24.80;73.50
43099;DHT22;28715;51.988;6.020;2022-08-11T07:24:43;25.40;71.70
43099;DHT22;28715;51.988;6.020;2022-08-11T07:27:42;26.00;70.60
43099;DHT22;28715;51.988;6.020;2022-08-11T07:30:27;26.40;69.20
43099;DHT22;28715;51.988;6.020;2022-08-11T07:32:56;26.80;68.20
43099;DHT22;28715;51.988;6.020;2022-08-11T07:35:34;27.10;67.30
43099;DHT22;28715;51.988;6.020;2022-08-11T07:38:06;27.40;67.00
43099;DHT22;28715;51.988;6.020;2022-08-11T07:40:33;27.60;66.10
43099;DHT22;28715;51.988;6.020;2022-08-11T07:43:02;27.80;65.40
43099;DHT22;28715;51.988;6.020;2022-08-11T07:45:28;27.90;65.60
43099;DHT22;28715;51.988;6.020;2022-08-11T07:48:14;28.10;65.50
43099;DHT22;28715;51.988;6.020;2022-08-11T07:50:59;28.30;65.10
43099;DHT22;28715;51.988;6.020;2022-08-11T07:53:45;28.50;64.30
43099;DHT22;28715;51.988;6.020;2022-08-11T07:56:11;28.70;63.70
43099;DHT22;28715;51.988;6.020;2022-08-11T07:58:41;28.90;62.90
43099;DHT22;28715;51.988;6.020;2022-08-11T08:01:26;29.20;62.20
43099;DHT22;28715;51.988;6.020;2022-08-11T08:04:14;29.50;62.10
43099;DHT22;28715;51.988;6.020;2022-08-11T08:07:00;29.70;61.20
43099;DHT22;28715;51.988;6.020;2022-08-11T08:09:47;30.00;60.50
43099;DHT22;28715;51.988;6.020;2022-08-11T08:12:33;30.30;60.60
43099;DHT22;28715;51.988;6.020;2022-08-11T08:15:20;30.50;59.20
43099;DHT22;28715;51.988;6.020;2022-08-11T08:18:05;30.80;59.00
43099;DHT22;28715;51.988;6.020;2022-08-11T08:20:36;31.10;58.30
43099;DHT22;28715;51.988;6.020;2022-08-11T08:23:04;31.30;58.10
43099;DHT22;28715;51.988;6.020;2022-08-11T08:25:33;31.40;57.60
43099;DHT22;28715;51.988;6.020;2022-08-11T08:28:03;31.60;57.30
43099;DHT22;28715;51.988;6.020;2022-08-11T08:30:30;31.80;57.10
43099;DHT22;28715;51.988;6.020;2022-08-11T08:33:28;32.00;56.60
43099;DHT22;28715;51.988;6.020;2022-08-11T08:35:57;32.20;55.90
43099;DHT22;28715;51.988;6.020;2022-08-11T08:38:48;32.30;55.60
43099;DHT22;28715;51.988;6.020;2022-08-11T08:41:19;32.40;55.60
43099;DHT22;28715;51.988;6.020;2022-08-11T08:43:49;32.50;55.30
43099;DHT22;28715;51.988;6.020;2022-08-11T08:46:19;32.60;54.70
43099;DHT22;28715;51.988;6.020;2022-08-11T08:48:48;32.70;55.00
43099;DHT22;28715;51.988;6.020;2022-08-11T08:51:15;32.80;55.40
43099;DHT22;28715;51.988;6.020;2022-08-11T08:54:16;32.90;55.00
43099;DHT22;28715;51.988;6.020;2022-08-11T08:56:43;33.10;54.40
43099;DHT22;28715;51.988;6.020;2022-08-11T08:59:12;33.20;54.10
43099;DHT22;28715;51.988;6.020;2022-08-11T09:01:45;33.30;54.10
43099;DHT22;28715;51.988;6.020;2022-08-11T09:04:12;33.50;53.20
43099;DHT22;28715;51.988;6.020;2022-08-11T09:06:39;33.60;52.70
43099;DHT22;28715;51.988;6.020;2022-08-11T09:09:07;33.80;52.70
43099;DHT22;28715;51.988;6.020;2022-08-11T09:11:35;33.90;53.00
43099;DHT22;28715;51.988;6.020;2022-08-11T09:14:32;34.00;52.80
43099;DHT22;28715;51.988;6.020;2022-08-11T09:17:18;34.10;52.60
43099;DHT22;28715;51.988;6.020;2022-08-11T09:19:46;34.10;52.20
43099;DHT22;28715;51.988;6.020;2022-08-11T09:22:12;34.20;52.50
43099;DHT22;28715;51.988;6.020;2022-08-11T09:25:03;34.20;52.30
43099;DHT22;28715;51.988;6.020;2022-08-11T09:27:48;34.20;52.10
43099;DHT22;28715;51.988;6.020;2022-08-11T09:30:14;34.30;51.30
43099;DHT22;28715;51.988;6.020;2022-08-11T09:32:40;34.30;51.50
43099;DHT22;28715;51.988;6.020;2022-08-11T09:35:10;34.40;51.50
43099;DHT22;28715;51.988;6.020;2022-08-11T09:37:36;34.40;51.60
43099;DHT22;28715;51.988;6.020;2022-08-11T09:40:21;34.40;51.20
43099;DHT22;28715;51.988;6.020;2022-08-11T09:42:57;34.50;51.50
43099;DHT22;28715;51.988;6.020;2022-08-11T09:45:47;34.50;50.90
43099;DHT22;28715;51.988;6.020;2022-08-11T09:48:21;34.50;51.40
43099;DHT22;28715;51.988;6.020;2022-08-11T09:50:49;34.60;51.40
43099;DHT22;28715;51.988;6.020;2022-08-11T09:53:17;34.70;50.80
43099;DHT22;28715;51.988;6.020;2022-08-11T09:55:45;34.80;51.30
43099;DHT22;28715;51.988;6.020;2022-08-11T09:58:12;34.80;50.50
43099;DHT22;28715;51.988;6.020;2022-08-11T10:00:38;34.90;51.20
43099;DHT22;28715;51.988;6.020;2022-08-11T10:03:14;35.00;51.20
43099;DHT22;28715;51.988;6.020;2022-08-11T10:05:44;35.00;50.80
43099;DHT22;28715;51.988;6.020;2022-08-11T10:08:31;35.00;50.70
43099;DHT22;28715;51.988;6.020;2022-08-11T10:11:00;35.00;50.80
43099;DHT22;28715;51.988;6.020;2022-08-11T10:13:31;35.00;51.20
43099;DHT22;28715;51.988;6.020;2022-08-11T10:16:02;35.00;50.80
43099;DHT22;28715;51.988;6.020;2022-08-11T10:18:36;34.90;51.10
43099;DHT22;28715;51.988;6.020;2022-08-11T10:24:00;34.80;50.40
43099;DHT22;28715;51.988;6.020;2022-08-11T10:26:49;34.80;50.20
43099;DHT22;28715;51.988;6.020;2022-08-11T10:29:31;34.80;50.20
43099;DHT22;28715;51.988;6.020;2022-08-11T10:32:27;34.70;49.50
43099;DHT22;28715;51.988;6.020;2022-08-11T10:35:13;34.60;48.20
43099;DHT22;28715;51.988;6.020;2022-08-11T10:37:41;34.40;48.30
43099;DHT22;28715;51.988;6.020;2022-08-11T10:40:12;34.40;49.50
43099;DHT22;28715;51.988;6.020;2022-08-11T10:42:42;34.30;50.70
43099;DHT22;28715;51.988;6.020;2022-08-11T10:45:29;34.30;48.60
43099;DHT22;28715;51.988;6.020;2022-08-11T10:48:14;34.20;49.20
43099;DHT22;28715;51.988;6.020;2022-08-11T10:50:44;34.20;49.70
43099;DHT22;28715;51.988;6.020;2022-08-11T10:53:28;34.10;48.90
43099;DHT22;28715;51.988;6.020;2022-08-11T10:56:13;34.10;48.60
43099;DHT22;28715;51.988;6.020;2022-08-11T10:58:57;34.20;50.30
43099;DHT22;28715;51.988;6.020;2022-08-11T11:01:30;34.30;49.10
43099;DHT22;28715;51.988;6.020;2022-08-11T11:04:00;34.40;47.20
43099;DHT22;28715;51.988;6.020;2022-08-11T11:06:37;34.40;48.10
43099;DHT22;28715;51.988;6.020;2022-08-11T11:09:30;34.40;45.10
43099;DHT22;28715;51.988;6.020;2022-08-11T11:12:02;34.30;44.00
43099;DHT22;28715;51.988;6.020;2022-08-11T11:14:51;34.20;46.40
43099;DHT22;28715;51.988;6.020;2022-08-11T11:17:39;34.10;45.50
43099;DHT22;28715;51.988;6.020;2022-08-11T11:20:44;34.10;45.60
43099;DHT22;28715;51.988;6.020;2022-08-11T11:26:16;34.20;47.60
43099;DHT22;28715;51.988;6.020;2022-08-11T11:36:56;34.60;45.30
43099;DHT22;28715;51.988;6.020;2022-08-11T11:39:24;34.80;46.00
43099;DHT22;28715;51.988;6.020;2022-08-11T11:41:54;34.80;45.70
43099;DHT22;28715;51.988;6.020;2022-08-11T11:44:22;34.80;46.10
43099;DHT22;28715;51.988;6.020;2022-08-11T11:46:49;34.80;46.40
43099;DHT22;28715;51.988;6.020;2022-08-11T11:49:17;34.80;45.20
43099;DHT22;28715;51.988;6.020;2022-08-11T11:51:45;34.80;44.60
43099;DHT22;28715;51.988;6.020;2022-08-11T11:54:13;34.90;43.30
43099;DHT22;28715;51.988;6.020;2022-08-11T11:56:40;34.90;44.70
43099;DHT22;28715;51.988;6.020;2022-08-11T11:59:07;34.90;45.00
43099;DHT22;28715;51.988;6.020;2022-08-11T12:01:53;34.90;42.70
43099;DHT22;28715;51.988;6.020;2022-08-11T12:04:20;34.70;42.30
43099;DHT22;28715;51.988;6.020;2022-08-11T12:06:46;34.60;45.00
43099;DHT22;28715;51.988;6.020;2022-08-11T12:09:13;34.60;45.20
43099;DHT22;28715;51.988;6.020;2022-08-11T12:11:45;34.60;43.90
43099;DHT22;28715;51.988;6.020;2022-08-11T12:14:29;34.50;44.20
43099;DHT22;28715;51.988;6.020;2022-08-11T12:16:56;34.50;43.90
43099;DHT22;28715;51.988;6.020;2022-08-11T12:19:25;34.70;44.30
43099;DHT22;28715;51.988;6.020;2022-08-11T12:22:04;34.80;44.60
43099;DHT22;28715;51.988;6.020;2022-08-11T12:25:06;34.80;44.60
43099;DHT22;28715;51.988;6.020;2022-08-11T12:27:53;34.90;44.70
43099;DHT22;28715;51.988;6.020;2022-08-11T12:30:24;35.00;43.80
43099;DHT22;28715;51.988;6.020;2022-08-11T12:32:53;35.10;45.10
43099;DHT22;28715;51.988;6.020;2022-08-11T12:35:25;35.10;45.30
43099;DHT22;28715;51.988;6.020;2022-08-11T12:37:53;35.10;44.90
43099;DHT22;28715;51.988;6.020;2022-08-11T12:40:26;35.10;45.10
43099;DHT22;28715;51.988;6.020;2022-08-11T12:43:20;35.10;45.50
43099;DHT22;28715;51.988;6.020;2022-08-11T12:46:35;35.10;43.70
43099;DHT22;28715;51.988;6.020;2022-08-11T12:49:16;35.20;43.40
43099;DHT22;28715;51.988;6.020;2022-08-11T12:52:09;35.20;42.70
43099;DHT22;28715;51.988;6.020;2022-08-11T12:54:59;35.20;43.90
43099;DHT22;28715;51.988;6.020;2022-08-11T12:57:31;35.20;44.30
43099;DHT22;28715;51.988;6.020;2022-08-11T13:00:17;35.20;43.10
43099;DHT22;28715;51.988;6.020;2022-08-11T13:03:02;35.30;43.30
43099;DHT22;28715;51.988;6.020;2022-08-11T13:06:14;35.40;42.70
43099;DHT22;28715;51.988;6.020;2022-08-11T13:08:49;35.50;43.60
43099;DHT22;28715;51.988;6.020;2022-08-11T13:11:46;35.70;44.70
43099;DHT22;28715;51.988;6.020;2022-08-11T13:14:35;35.80;43.10
43099;DHT22;28715;51.988;6.020;2022-08-11T13:17:02;35.80;42.00
43099;DHT22;28715;51.988;6.020;2022-08-11T13:20:00;35.60;42.40
43099;DHT22;28715;51.988;6.020;2022-08-11T13:22:31;35.70;42.80
43099;DHT22;28715;51.988;6.020;2022-08-11T13:24:57;35.60;42.00
43099;DHT22;28715;51.988;6.020;2022-08-11T13:27:30;35.60;41.10
43099;DHT22;28715;51.988;6.020;2022-08-11T13:29:56;35.60;42.80
43099;DHT22;28715;51.988;6.020;2022-08-11T13:32:41;35.60;41.80
43099;DHT22;28715;51.988;6.020;2022-08-11T13:35:09;35.60;43.70
43099;DHT22;28715;51.988;6.020;2022-08-11T13:37:43;35.60;43.70
43099;DHT22;28715;51.988;6.020;2022-08-11T13:40:10;35.60;43.10
43099;DHT22;28715;51.988;6.020;2022-08-11T13:42:37;35.60;42.50
43099;DHT22;28715;51.988;6.020;2022-08-11T13:45:13;35.60;42.60
43099;DHT22;28715;51.988;6.020;2022-08-11T13:47:48;35.60;42.30
43099;DHT22;28715;51.988;6.020;2022-08-11T13:50:19;35.70;42.60
43099;DHT22;28715;51.988;6.020;2022-08-11T13:52:45;35.60;42.10
43099;DHT22;28715;51.988;6.020;2022-08-11T13:55:13;35.60;41.60
43099;DHT22;28715;51.988;6.020;2022-08-11T14:00:50;35.50;42.20
43099;DHT22;28715;51.988;6.020;2022-08-11T14:03:32;35.40;41.40
43099;DHT22;28715;51.988;6.020;2022-08-11T14:06:00;35.40;41.80
43099;DHT22;28715;51.988;6.020;2022-08-11T14:08:39;35.40;42.10
43099;DHT22;28715;51.988;6.020;2022-08-11T14:11:15;35.40;41.70
43099;DHT22;28715;51.988;6.020;2022-08-11T14:14:07;35.40;41.60
43099;DHT22;28715;51.988;6.020;2022-08-11T14:16:39;35.40;42.10
43099;DHT22;28715;51.988;6.020;2022-08-11T14:19:28;35.40;41.30
43099;DHT22;28715;51.988;6.020;2022-08-11T14:21:57;35.40;41.90
43099;DHT22;28715;51.988;6.020;2022-08-11T14:24:46;35.40;42.20
43099;DHT22;28715;51.988;6.020;2022-08-11T14:27:15;35.50;41.30
43099;DHT22;28715;51.988;6.020;2022-08-11T14:29:41;35.50;42.60
43099;DHT22;28715;51.988;6.020;2022-08-11T14:32:11;35.60;41.90
43099;DHT22;28715;51.988;6.020;2022-08-11T14:34:42;35.40;40.80
43099;DHT22;28715;51.988;6.020;2022-08-11T14:37:11;35.20;41.60
43099;DHT22;28715;51.988;6.020;2022-08-11T14:39:40;35.20;42.70
43099;DHT22;28715;51.988;6.020;2022-08-11T14:42:07;35.10;41.80
43099;DHT22;28715;51.988;6.020;2022-08-11T14:45:14;35.10;42.10
43099;DHT22;28715;51.988;6.020;2022-08-11T14:48:03;34.90;41.60
43099;DHT22;28715;51.988;6.020;2022-08-11T14:50:31;34.80;42.50
43099;DHT22;28715;51.988;6.020;2022-08-11T14:53:02;34.80;42.80
43099;DHT22;28715;51.988;6.020;2022-08-11T14:55:31;34.70;41.80
43099;DHT22;28715;51.988;6.020;2022-08-11T14:58:19;34.80;42.10
43099;DHT22;28715;51.988;6.020;2022-08-11T15:00:46;34.80;42.60
43099;DHT22;28715;51.988;6.020;2022-08-11T15:03:14;34.80;42.20
43099;DHT22;28715;51.988;6.020;2022-08-11T15:05:48;34.80;42.20
43099;DHT22;28715;51.988;6.020;2022-08-11T15:08:15;34.70;41.90
43099;DHT22;28715;51.988;6.020;2022-08-11T15:10:43;34.70;42.10
43099;DHT22;28715;51.988;6.020;2022-08-11T15:13:09;34.60;43.10
43099;DHT22;28715;51.988;6.020;2022-08-11T15:15:35;34.60;42.80
43099;DHT22;28715;51.988;6.020;2022-08-11T15:18:23;34.60;42.50
43099;DHT22;28715;51.988;6.020;2022-08-11T15:20:49;34.50;42.00
43099;DHT22;28715;51.988;6.020;2022-08-11T15:23:47;34.40;42.30
43099;DHT22;28715;51.988;6.020;2022-08-11T15:26:39;34.30;42.90
43099;DHT22;28715;51.988;6.020;2022-08-11T15:29:28;34.20;42.30
43099;DHT22;28715;51.988;6.020;2022-08-11T15:32:13;34.10;42.70
43099;DHT22;28715;51.988;6.020;2022-08-11T15:34:50;34.00;42.30
43099;DHT22;28715;51.988;6.020;2022-08-11T15:37:36;33.90;41.40
43099;DHT22;28715;51.988;6.020;2022-08-11T15:40:12;33.80;43.10
43099;DHT22;28715;51.988;6.020;2022-08-11T15:43:13;33.80;43.40
43099;DHT22;28715;51.988;6.020;2022-08-11T15:46:02;33.80;43.10
43099;DHT22;28715;51.988;6.020;2022-08-11T15:48:40;33.80;43.10
43099;DHT22;28715;51.988;6.020;2022-08-11T15:51:18;33.70;44.20
43099;DHT22;28715;51.988;6.020;2022-08-11T15:53:51;33.70;42.20
43099;DHT22;28715;51.988;6.020;2022-08-11T15:56:20;33.60;42.60
43099;DHT22;28715;51.988;6.020;2022-08-11T15:58:50;33.60;43.30
43099;DHT22;28715;51.988;6.020;2022-08-11T16:01:37;33.60;44.50
43099;DHT22;28715;51.988;6.020;2022-08-11T16:04:25;33.50;43.60
43099;DHT22;28715;51.988;6.020;2022-08-11T16:07:06;33.40;43.00
43099;DHT22;28715;51.988;6.020;2022-08-11T16:09:40;33.40;43.30
43099;DHT22;28715;51.988;6.020;2022-08-11T16:12:12;33.40;43.30
43099;DHT22;28715;51.988;6.020;2022-08-11T16:14:48;33.40;44.20
43099;DHT22;28715;51.988;6.020;2022-08-11T16:18:00;33.40;44.50
43099;DHT22;28715;51.988;6.020;2022-08-11T16:20:28;33.40;44.00
43099;DHT22;28715;51.988;6.020;2022-08-11T16:23:00;33.40;44.10
43099;DHT22;28715;51.988;6.020;2022-08-11T16:25:28;33.30;44.30
43099;DHT22;28715;51.988;6.020;2022-08-11T16:27:56;33.30;45.50
43099;DHT22;28715;51.988;6.020;2022-08-11T16:30:34;33.20;45.40
43099;DHT22;28715;51.988;6.020;2022-08-11T16:33:01;33.10;45.50
43099;DHT22;28715;51.988;6.020;2022-08-11T16:35:32;33.10;44.60
43099;DHT22;28715;51.988;6.020;2022-08-11T16:38:19;33.10;45.50
43099;DHT22;28715;51.988;6.020;2022-08-11T16:41:08;33.00;45.50
43099;DHT22;28715;51.988;6.020;2022-08-11T16:43:39;33.00;44.70
43099;DHT22;28715;51.988;6.020;2022-08-11T16:46:26;32.90;44.10
43099;DHT22;28715;51.988;6.020;2022-08-11T16:49:32;32.90;45.60
43099;DHT22;28715;51.988;6.020;2022-08-11T16:51:59;32.90;45.50
43099;DHT22;28715;51.988;6.020;2022-08-11T16:54:29;32.90;46.70
43099;DHT22;28715;51.988;6.020;2022-08-11T16:56:56;32.80;45.20
43099;DHT22;28715;51.988;6.020;2022-08-11T16:59:43;32.80;45.70
43099;DHT22;28715;51.988;6.020;2022-08-11T17:02:15;32.70;45.60
43099;DHT22;28715;51.988;6.020;2022-08-11T17:05:02;32.70;46.10
43099;DHT22;28715;51.988;6.020;2022-08-11T17:07:48;32.70;45.00
43099;DHT22;28715;51.988;6.020;2022-08-11T17:13:49;32.60;45.00
43099;DHT22;28715;51.988;6.020;2022-08-11T17:16:21;32.50;45.30
43099;DHT22;28715;51.988;6.020;2022-08-11T17:18:56;32.40;45.40
43099;DHT22;28715;51.988;6.020;2022-08-11T17:21:28;32.30;45.70
43099;DHT22;28715;51.988;6.020;2022-08-11T17:24:13;32.20;44.40
43099;DHT22;28715;51.988;6.020;2022-08-11T17:26:45;32.20;44.20
43099;DHT22;28715;51.988;6.020;2022-08-11T17:29:41;32.20;45.00
43099;DHT22;28715;51.988;6.020;2022-08-11T17:35:12;32.00;45.10
43099;DHT22;28715;51.988;6.020;2022-08-11T17:38:10;32.00;45.30
43099;DHT22;28715;51.988;6.020;2022-08-11T17:40:50;31.90;45.20
43099;DHT22;28715;51.988;6.020;2022-08-11T17:43:35;31.80;45.10
43099;DHT22;28715;51.988;6.020;2022-08-11T17:46:20;31.80;45.60
43099;DHT22;28715;51.988;6.020;2022-08-11T17:49:06;31.70;45.70
43099;DHT22;28715;51.988;6.020;2022-08-11T17:51:33;31.70;45.20
43099;DHT22;28715;51.988;6.020;2022-08-11T17:54:18;31.60;45.80
43099;DHT22;28715;51.988;6.020;2022-08-11T17:57:05;31.50;46.40
43099;DHT22;28715;51.988;6.020;2022-08-11T17:59:50;31.50;46.00
43099;DHT22;28715;51.988;6.020;2022-08-11T18:02:38;31.40;45.90
43099;DHT22;28715;51.988;6.020;2022-08-11T18:05:24;31.30;46.40
43099;DHT22;28715;51.988;6.020;2022-08-11T18:07:53;31.30;46.60
43099;DHT22;28715;51.988;6.020;2022-08-11T18:10:40;31.20;46.80
43099;DHT22;28715;51.988;6.020;2022-08-11T18:13:30;31.10;47.00
43099;DHT22;28715;51.988;6.020;2022-08-11T18:16:14;31.00;47.40
43099;DHT22;28715;51.988;6.020;2022-08-11T18:18:58;31.00;47.50
43099;DHT22;28715;51.988;6.020;2022-08-11T18:21:44;30.90;47.70
43099;DHT22;28715;51.988;6.020;2022-08-11T18:24:32;30.80;47.90
43099;DHT22;28715;51.988;6.020;2022-08-11T18:27:19;30.70;48.20
43099;DHT22;28715;51.988;6.020;2022-08-11T18:30:05;30.60;47.60
43099;DHT22;28715;51.988;6.020;2022-08-11T18:32:51;30.50;48.10
43099;DHT22;28715;51.988;6.020;2022-08-11T18:35:37;30.40;47.90
43099;DHT22;28715;51.988;6.020;2022-08-11T18:38:26;30.40;48.20
43099;DHT22;28715;51.988;6.020;2022-08-11T18:41:12;30.30;48.50
43099;DHT22;28715;51.988;6.020;2022-08-11T18:43:58;30.20;48.70
43099;DHT22;28715;51.988;6.020;2022-08-11T18:46:46;30.10;48.50
43099;DHT22;28715;51.988;6.020;2022-08-11T18:49:38;30.00;48.80
43099;DHT22;28715;51.988;6.020;2022-08-11T18:52:24;29.90;48.90
43099;DHT22;28715;51.988;6.020;2022-08-11T18:55:13;29.80;48.60
43099;DHT22;28715;51.988;6.020;2022-08-11T18:58:03;29.70;48.80
43099;DHT22;28715;51.988;6.020;2022-08-11T19:00:48;29.70;48.80
43099;DHT22;28715;51.988;6.020;2022-08-11T19:03:32;29.60;48.80
43099;DHT22;28715;51.988;6.020;2022-08-11T19:06:21;29.50;48.80
43099;DHT22;28715;51.988;6.020;2022-08-11T19:09:11;29.40;49.30
43099;DHT22;28715;51.988;6.020;2022-08-11T19:11:57;29.30;49.60
43099;DHT22;28715;51.988;6.020;2022-08-11T19:14:42;29.20;49.30
43099;DHT22;28715;51.988;6.020;2022-08-11T19:17:29;29.10;50.00
43099;DHT22;28715;51.988;6.020;2022-08-11T19:20:16;29.00;50.10
43099;DHT22;28715;51.988;6.020;2022-08-11T19:23:03;28.80;50.40
43099;DHT22;28715;51.988;6.020;2022-08-11T19:25:48;28.80;50.30
43099;DHT22;28715;51.988;6.020;2022-08-11T19:28:33;28.60;50.80
43099;DHT22;28715;51.988;6.020;2022-08-11T19:31:18;28.50;51.00
43099;DHT22;28715;51.988;6.020;2022-08-11T19:34:04;28.40;50.80
43099;DHT22;28715;51.988;6.020;2022-08-11T19:36:51;28.30;51.20
43099;DHT22;28715;51.988;6.020;2022-08-11T19:39:35;28.20;51.50
43099;DHT22;28715;51.988;6.020;2022-08-11T19:42:20;28.10;51.90
43099;DHT22;28715;51.988;6.020;2022-08-11T19:45:06;28.00;51.40
43099;DHT22;28715;51.988;6.020;2022-08-11T19:47:50;27.90;51.60
43099;DHT22;28715;51.988;6.020;2022-08-11T19:50:35;27.80;51.20
43099;DHT22;28715;51.988;6.020;2022-08-11T19:53:21;27.70;51.30
43099;DHT22;28715;51.988;6.020;2022-08-11T19:56:07;27.60;51.40
43099;DHT22;28715;51.988;6.020;2022-08-11T19:58:52;27.50;51.70
43099;DHT22;28715;51.988;6.020;2022-08-11T20:01:36;27.50;52.00
43099;DHT22;28715;51.988;6.020;2022-08-11T20:04:21;27.40;52.10
43099;DHT22;28715;51.988;6.020;2022-08-11T20:07:06;27.30;52.30
43099;DHT22;28715;51.988;6.020;2022-08-11T20:09:51;27.30;53.20
43099;DHT22;28715;51.988;6.020;2022-08-11T20:12:36;27.10;52.90
43099;DHT22;28715;51.988;6.020;2022-08-11T20:15:22;27.10;52.90
43099;DHT22;28715;51.988;6.020;2022-08-11T20:18:10;27.00;53.40
43099;DHT22;28715;51.988;6.020;2022-08-11T20:20:56;26.90;52.90
43099;DHT22;28715;51.988;6.020;2022-08-11T20:23:44;26.90;53.60
43099;DHT22;28715;51.988;6.020;2022-08-11T20:26:32;26.80;53.50
43099;DHT22;28715;51.988;6.020;2022-08-11T20:29:18;26.70;53.60
43099;DHT22;28715;51.988;6.020;2022-08-11T20:32:04;26.70;54.10
43099;DHT22;28715;51.988;6.020;2022-08-11T20:34:50;26.60;53.90
43099;DHT22;28715;51.988;6.020;2022-08-11T20:37:36;26.50;54.50
43099;DHT22;28715;51.988;6.020;2022-08-11T20:40:24;26.50;54.50
43099;DHT22;28715;51.988;6.020;2022-08-11T20:43:18;26.30;54.70
43099;DHT22;28715;51.988;6.020;2022-08-11T20:46:04;26.30;55.70
43099;DHT22;28715;51.988;6.020;2022-08-11T20:48:50;26.20;55.60
43099;DHT22;28715;51.988;6.020;2022-08-11T20:51:36;26.10;55.60
43099;DHT22;28715;51.988;6.020;2022-08-11T20:54:22;26.10;55.60
43099;DHT22;28715;51.988;6.020;2022-08-11T20:57:09;26.00;55.60
43099;DHT22;28715;51.988;6.020;2022-08-11T20:59:54;25.90;55.50
43099;DHT22;28715;51.988;6.020;2022-08-11T21:02:38;26.00;55.60
43099;DHT22;28715;51.988;6.020;2022-08-11T21:05:23;25.90;56.30
43099;DHT22;28715;51.988;6.020;2022-08-11T21:08:08;25.90;55.90
43099;DHT22;28715;51.988;6.020;2022-08-11T21:10:53;25.90;56.00
43099;DHT22;28715;51.988;6.020;2022-08-11T21:13:39;25.80;56.20
43099;DHT22;28715;51.988;6.020;2022-08-11T21:16:29;25.70;56.00
43099;DHT22;28715;51.988;6.020;2022-08-11T21:19:24;25.70;55.80
43099;DHT22;28715;51.988;6.020;2022-08-11T21:22:14;25.60;55.50
43099;DHT22;28715;51.988;6.020;2022-08-11T21:25:00;25.60;56.10
43099;DHT22;28715;51.988;6.020;2022-08-11T21:27:47;25.60;56.20
43099;DHT22;28715;51.988;6.020;2022-08-11T21:30:34;25.50;55.80
43099;DHT22;28715;51.988;6.020;2022-08-11T21:33:19;25.50;56.00
43099;DHT22;28715;51.988;6.020;2022-08-11T21:36:06;25.40;55.70
43099;DHT22;28715;51.988;6.020;2022-08-11T21:38:51;25.40;55.70
43099;DHT22;28715;51.988;6.020;2022-08-11T21:41:37;25.40;55.50
43099;DHT22;28715;51.988;6.020;2022-08-11T21:44:22;25.40;56.10
43099;DHT22;28715;51.988;6.020;2022-08-11T21:47:08;25.40;56.10
43099;DHT22;28715;51.988;6.020;2022-08-11T21:49:54;25.30;56.90
43099;DHT22;28715;51.988;6.020;2022-08-11T21:52:38;25.30;56.30
43099;DHT22;28715;51.988;6.020;2022-08-11T21:55:24;25.20;56.30
43099;DHT22;28715;51.988;6.020;2022-08-11T21:58:09;25.20;56.80
43099;DHT22;28715;51.988;6.020;2022-08-11T22:00:54;25.20;57.10
43099;DHT22;28715;51.988;6.020;2022-08-11T22:03:39;25.30;57.60
43099;DHT22;28715;51.988;6.020;2022-08-11T22:06:24;25.20;57.20
43099;DHT22;28715;51.988;6.020;2022-08-11T22:09:09;25.20;56.50
43099;DHT22;28715;51.988;6.020;2022-08-11T22:11:53;25.20;56.80
43099;DHT22;28715;51.988;6.020;2022-08-11T22:14:38;25.30;56.60
43099;DHT22;28715;51.988;6.020;2022-08-11T22:17:22;25.30;56.70
43099;DHT22;28715;51.988;6.020;2022-08-11T22:20:07;25.20;57.10
43099;DHT22;28715;51.988;6.020;2022-08-11T22:22:54;25.20;56.90
43099;DHT22;28715;51.988;6.020;2022-08-11T22:25:39;25.20;57.40
43099;DHT22;28715;51.988;6.020;2022-08-11T22:28:23;25.20;57.40
43099;DHT22;28715;51.988;6.020;2022-08-11T22:31:09;25.20;57.90
43099;DHT22;28715;51.988;6.020;2022-08-11T22:33:54;25.10;58.40
43099;DHT22;28715;51.988;6.020;2022-08-11T22:36:40;25.10;58.70
43099;DHT22;28715;51.988;6.020;2022-08-11T22:39:26;25.10;58.90
43099;DHT22;28715;51.988;6.020;2022-08-11T22:42:11;25.00;59.00
43099;DHT22;28715;51.988;6.020;2022-08-11T22:44:55;24.90;59.20
43099;DHT22;28715;51.988;6.020;2022-08-11T22:47:41;24.90;59.50
43099;DHT22;28715;51.988;6.020;2022-08-11T22:50:26;24.80;60.00
43099;DHT22;28715;51.988;6.020;2022-08-11T22:53:13;24.80;60.60
43099;DHT22;28715;51.988;6.020;2022-08-11T22:55:58;24.70;61.00
43099;DHT22;28715;51.988;6.020;2022-08-11T22:58:42;24.70;61.20
43099;DHT22;28715;51.988;6.020;2022-08-11T23:01:27;24.70;61.90
43099;DHT22;28715;51.988;6.020;2022-08-11T23:04:12;24.60;62.20
43099;DHT22;28715;51.988;6.020;2022-08-11T23:06:59;24.60;62.50
43099;DHT22;28715;51.988;6.020;2022-08-11T23:09:44;24.50;63.30
43099;DHT22;28715;51.988;6.020;2022-08-11T23:12:28;24.50;63.20
43099;DHT22;28715;51.988;6.020;2022-08-11T23:15:12;24.50;63.40
43099;DHT22;28715;51.988;6.020;2022-08-11T23:17:57;24.40;63.70
43099;DHT22;28715;51.988;6.020;2022-08-11T23:20:43;24.40;63.90
43099;DHT22;28715;51.988;6.020;2022-08-11T23:23:28;24.30;63.90
43099;DHT22;28715;51.988;6.020;2022-08-11T23:26:14;24.30;63.90
43099;DHT22;28715;51.988;6.020;2022-08-11T23:29:02;24.20;64.60
43099;DHT22;28715;51.988;6.020;2022-08-11T23:31:46;24.20;64.40
43099;DHT22;28715;51.988;6.020;2022-08-11T23:34:40;24.20;64.90
43099;DHT22;28715;51.988;6.020;2022-08-11T23:37:27;24.10;65.00
43099;DHT22;28715;51.988;6.020;2022-08-11T23:40:11;24.10;64.90
43099;DHT22;28715;51.988;6.020;2022-08-11T23:42:56;24.00;65.70
43099;DHT22;28715;51.988;6.020;2022-08-11T23:45:40;24.00;65.90
43099;DHT22;28715;51.988;6.020;2022-08-11T23:48:26;24.00;66.40
43099;DHT22;28715;51.988;6.020;2022-08-11T23:51:15;24.00;66.30
43099;DHT22;28715;51.988;6.020;2022-08-11T23:54:00;23.90;66.80
43099;DHT22;28715;51.988;6.020;2022-08-11T23:56:44;23.90;67.90
43099;DHT22;28715;51.988;6.020;2022-08-11T23:59:29;23.80;67.30
